Cal Nev Ari, Nevada
Current Conditions -  °F | °C
As of 6:35 PM on Wednesday 22 Oct 2014 (Local Time) from KIFP Reporting Station
Clear Clear  
Wind Chill: 84°   Ceiling: Unl
Heat Index: 84°   Visibility: 10mi
Dew Point: 37°   Wind: 0mph
Humidity: 19%   Direction: NA
Pressure: 29.91"   Gusts: NA
Location:  35.46°N, 114.92°W
Report Text: KIFP 230135Z AUTO 00000KT 10SM CLR 29/03 A2991 RMK AO2 PWINO
Loading
Personal Weather Stations






























Interactive Weather Map
Tropical Storm Tracking
New forecast layout! Learn more

10-Day Weather Forecast

Advertisements
Track Severe Weather on mobile